ARM weather

Armidale Airport
Armidale, New South Wales, Australia

Public forecast

Using degrees Celsius for public forecast. Weather courtesy of forecast.io.

METAR (pilot weather report)

Closest report is Tamworth Airport, 51.9 nm (96.1 km) SW. Retrieved 2019/02/20 10:30 UTC (28 minutes ago):

YSTW 201030Z AUTO 14015KT 9999 // NCD 24/16 Q1008 RF00.0/000.0

TAF (pilot weather forecast)

Closest forecast is Tamworth Airport, 51.9 nm (96.1 km) SW. Retrieved 2019/02/20 06:36 UTC (4 hours ago):

TAF TAF YSTW 200457Z 2006/2024 19014KT 9999 -SHRA SCT060 FM201800 15012KT 9999 SCT020 PROB30 INTER 2006/2012 VRB20G35KT 3000 TSRA SCT010 SCT060CB